Overview Statistics Trail Chart Weather Telemetry Raw packets
 

This is the latest recevied weather packets stored in our database for station/object KB9HUO. If no packets are shown the sender has not sent any weather packets the latest 10 day(s).

<< 77 78 79 80 81 82 83 >>
Time Temp. Humidity Pressure Rain* Wind** Luminosity Snow
1788108390 31.11° C 59% 1021.6 hPa 0 mm - 718 W/m² -
1788108085 30.56° C 60% 1021.5 hPa 0 mm - 702 W/m² -
1788107782 30.56° C 59% 1021.6 hPa 0 mm - 694 W/m² -
1788107481 30.56° C 60% 1021.8 hPa 0 mm - 684 W/m² -
1788107177 30.56° C 63% 1021.7 hPa 0 mm - 677 W/m² -
1788106873 30° C 59% 1021.4 hPa 0 mm - 668 W/m² -
1788106573 30° C 60% 1021.3 hPa 0 mm - 663 W/m² -
1788106268 30° C 61% 1021.5 hPa 0 mm - 655 W/m² -
1788105964 30° C 61% 1021.4 hPa 0 mm - 648 W/m² -
1788105664 29.44° C 63% 1021.4 hPa 0 mm - 638 W/m² -
1788105360 29.44° C 64% 1021.3 hPa 0 mm - 629 W/m² -
1788105056 29.44° C 63% 1021.2 hPa 0 mm - 621 W/m² -
1788104750 29.44° C 63% 1021.1 hPa 0 mm - 612 W/m² -
1788096923 21.11° C 99% 1020.4 hPa 0 mm - 40 W/m² -
1788096618 21.11° C 99% 1020.4 hPa 0 mm - 40 W/m² -
1788096314 21.11° C 99% 1020.4 hPa 0 mm - 40 W/m² -
1788096014 20.56° C 99% 1020.6 hPa 0 mm - 38 W/m² -
1788095713 20.56° C 99% 1020.7 hPa 0 mm - 37 W/m² -
1788095408 20° C 99% 1020.6 hPa 0 mm - 35 W/m² -
1788095103 19.44° C 99% 1020.4 hPa 0 mm - 32 W/m² -
1788094802 19.44° C 99% 1020.5 hPa 0 mm - 32 W/m² -
1788094498 18.89° C 99% 1020.6 hPa 0 mm - 32 W/m² -
1788094196 18.89° C 99% 1020.8 hPa 0 mm - 33 W/m² -
1788093891 18.33° C 99% 1020.7 hPa 0 mm - 30 W/m² -
1788093587 18.33° C 99% 1020.6 hPa 0 mm - 28 W/m² -

* Rain latest hour (hover to see other rain measurements)
** Current wind speed in m/s (hover to see current wind gust speed)